TimeEDT,TemperatureF,Dew PointF,Humidity,Sea Level PressureIn,VisibilityMPH,Wind Direction,Wind SpeedMPH,Gust SpeedMPH,PrecipitationIn,Events,Conditions,WindDirDegrees,DateUTC
12:10 AM,57.2,48.2,72,30.19,10.0,ESE,4.6,-,0.00,,Clear,110,2013-09-18 04:10:00
12:30 AM,57.2,48.2,72,30.19,10.0,Calm,Calm,-,0.00,,Clear,0,2013-09-18 04:30:00
12:50 AM,57.2,48.2,72,30.18,10.0,ESE,3.5,-,0.00,,Clear,110,2013-09-18 04:50:00
1:10 AM,57.2,48.2,72,30.18,10.0,ESE,4.6,-,0.00,,Clear,110,2013-09-18 05:10:00
1:30 AM,57.2,48.2,72,30.18,10.0,ESE,5.8,-,0.00,,Clear,110,2013-09-18 05:30:00
1:50 AM,57.2,48.2,72,30.18,10.0,ESE,5.8,-,0.00,,Clear,110,2013-09-18 05:50:00
2:10 AM,57.2,48.2,72,30.17,10.0,ESE,6.9,-,0.00,,Clear,110,2013-09-18 06:10:00
2:30 AM,59.0,50.0,72,30.16,10.0,East,5.8,-,0.00,,Clear,100,2013-09-18 06:30:00
2:50 AM,59.0,50.0,72,30.16,10.0,Calm,Calm,-,0.00,,Clear,0,2013-09-18 06:50:00
3:10 AM,57.2,50.0,77,30.16,10.0,ESE,4.6,-,0.00,,Clear,120,2013-09-18 07:10:00
3:30 AM,57.2,50.0,77,30.16,10.0,SE,3.5,-,0.00,,Clear,130,2013-09-18 07:30:00
3:50 AM,57.2,50.0,77,30.15,10.0,ESE,3.5,-,0.00,,Clear,120,2013-09-18 07:50:00
4:10 AM,59.0,50.0,72,30.14,10.0,ESE,5.8,-,0.00,,Clear,120,2013-09-18 08:10:00
4:30 AM,59.0,50.0,72,30.14,10.0,ESE,5.8,-,0.00,,Clear,110,2013-09-18 08:30:00
4:50 AM,57.2,50.0,77,30.13,10.0,ESE,6.9,-,0.00,,Clear,120,2013-09-18 08:50:00
5:10 AM,57.2,51.8,82,30.14,10.0,SE,5.8,-,0.00,,Clear,130,2013-09-18 09:10:00
5:30 AM,57.2,51.8,82,30.14,10.0,SE,5.8,-,0.00,,Clear,130,2013-09-18 09:30:00
5:50 AM,57.2,51.8,82,30.14,10.0,SE,6.9,-,0.00,,Clear,130,2013-09-18 09:50:00
6:10 AM,57.2,51.8,82,30.15,10.0,SE,6.9,-,0.00,,Clear,130,2013-09-18 10:10:00
6:30 AM,57.2,51.8,82,30.15,10.0,SE,6.9,-,0.00,,Clear,140,2013-09-18 10:30:00
6:50 AM,55.4,51.8,88,30.15,10.0,SE,5.8,-,0.00,,Clear,140,2013-09-18 10:50:00
7:10 AM,57.2,51.8,82,30.15,10.0,SE,6.9,-,0.00,,Clear,130,2013-09-18 11:10:00
7:30 AM,57.2,51.8,82,30.15,10.0,ESE,8.1,-,0.00,,Clear,120,2013-09-18 11:30:00
7:50 AM,57.2,53.6,88,30.15,10.0,SE,6.9,-,0.00,,Clear,130,2013-09-18 11:50:00
8:10 AM,57.2,53.6,88,30.15,10.0,ESE,6.9,-,0.00,,Clear,120,2013-09-18 12:10:00
8:30 AM,57.2,53.6,88,30.15,10.0,SE,6.9,-,0.00,,Clear,130,2013-09-18 12:30:00
8:50 AM,57.2,53.6,88,30.15,10.0,SE,6.9,-,0.00,,Clear,140,2013-09-18 12:50:00
9:10 AM,57.2,53.6,88,30.15,10.0,SE,9.2,-,0.00,,Clear,130,2013-09-18 13:10:00
9:30 AM,60.8,55.4,82,30.16,10.0,SSE,6.9,-,0.00,,Clear,150,2013-09-18 13:30:00
9:50 AM,62.6,55.4,77,30.16,10.0,SE,6.9,-,0.00,,Clear,140,2013-09-18 13:50:00
10:10 AM,62.6,55.4,77,30.16,10.0,South,5.8,-,0.00,,Partly Cloudy,170,2013-09-18 14:10:00
10:30 AM,64.4,55.4,73,30.17,10.0,SSE,5.8,-,0.00,,Scattered Clouds,160,2013-09-18 14:30:00
10:50 AM,64.4,55.4,73,30.17,10.0,South,4.6,-,0.00,,Scattered Clouds,180,2013-09-18 14:50:00
11:10 AM,66.2,57.2,73,30.16,10.0,South,3.5,-,0.00,,Scattered Clouds,180,2013-09-18 15:10:00
11:30 AM,68.0,57.2,68,30.16,10.0,Calm,Calm,-,0.00,,Partly Cloudy,0,2013-09-18 15:30:00
11:50 AM,69.8,55.4,60,30.15,10.0,Calm,Calm,-,0.00,,Clear,0,2013-09-18 15:50:00
12:10 PM,69.8,57.2,64,30.14,10.0,ENE,3.5,-,0.00,,Clear,70,2013-09-18 16:10:00
12:30 PM,71.6,55.4,57,30.14,10.0,SSW,4.6,-,0.00,,Partly Cloudy,200,2013-09-18 16:30:00
12:50 PM,71.6,55.4,57,30.13,10.0,Calm,Calm,-,0.00,,Partly Cloudy,0,2013-09-18 16:50:00
1:10 PM,71.6,55.4,57,30.13,10.0,SE,3.5,-,0.00,,Scattered Clouds,130,2013-09-18 17:10:00
1:30 PM,73.4,55.4,53,30.12,10.0,South,3.5,-,0.00,,Mostly Cloudy,190,2013-09-18 17:30:00
1:50 PM,73.4,55.4,53,30.11,10.0,SW,4.6,-,0.00,,Partly Cloudy,220,2013-09-18 17:50:00
2:10 PM,73.4,53.6,50,30.11,10.0,ESE,3.5,-,0.00,,Partly Cloudy,120,2013-09-18 18:10:00
2:30 PM,75.2,53.6,47,30.10,10.0,WSW,5.8,-,0.00,,Clear,250,2013-09-18 18:30:00
2:50 PM,75.2,53.6,47,30.09,10.0,SSW,4.6,-,0.00,,Clear,210,2013-09-18 18:50:00
3:10 PM,75.2,53.6,47,30.09,10.0,South,5.8,-,0.00,,Clear,190,2013-09-18 19:10:00
3:30 PM,77.0,53.6,44,30.08,10.0,SSE,4.6,-,0.00,,Clear,160,2013-09-18 19:30:00
3:50 PM,77.0,51.8,41,30.07,10.0,WSW,4.6,-,0.00,,Clear,250,2013-09-18 19:50:00
4:10 PM,77.0,51.8,41,30.06,10.0,Calm,Calm,-,0.00,,Clear,0,2013-09-18 20:10:00
4:30 PM,77.0,51.8,41,30.06,10.0,Calm,Calm,-,0.00,,Clear,0,2013-09-18 20:30:00
4:50 PM,78.8,51.8,39,30.06,10.0,Calm,Calm,-,0.00,,Clear,0,2013-09-18 20:50:00
5:10 PM,78.8,50.0,36,30.05,10.0,South,6.9,-,0.00,,Clear,180,2013-09-18 21:10:00
5:30 PM,78.8,48.2,34,30.05,10.0,SSW,3.5,-,0.00,,Clear,210,2013-09-18 21:30:00
5:50 PM,78.8,51.8,39,30.05,10.0,South,8.1,-,0.00,,Clear,190,2013-09-18 21:50:00
6:10 PM,77.0,50.0,39,30.05,10.0,South,4.6,-,0.00,,Clear,180,2013-09-18 22:10:00
6:30 PM,75.2,51.8,44,30.05,10.0,South,4.6,-,0.00,,Mostly Cloudy,190,2013-09-18 22:30:00
6:50 PM,75.2,53.6,47,30.04,10.0,South,4.6,-,0.00,,Overcast,170,2013-09-18 22:50:00
7:10 PM,73.4,55.4,53,30.05,10.0,South,5.8,-,0.00,,Mostly Cloudy,170,2013-09-18 23:10:00
7:30 PM,71.6,55.4,57,30.05,10.0,SSE,5.8,-,0.00,,Scattered Clouds,160,2013-09-18 23:30:00
7:50 PM,69.8,55.4,60,30.05,10.0,Calm,Calm,-,0.00,,Overcast,0,2013-09-18 23:50:00
8:10 PM,69.8,57.2,64,30.05,10.0,SSE,4.6,-,0.00,,Overcast,150,2013-09-19 00:10:00
8:30 PM,68.0,57.2,68,30.05,10.0,SE,5.8,-,0.00,,Mostly Cloudy,140,2013-09-19 00:30:00
8:50 PM,66.2,55.4,68,30.06,10.0,SSE,5.8,-,0.00,,Partly Cloudy,150,2013-09-19 00:50:00
9:10 PM,66.2,55.4,68,30.06,10.0,SE,4.6,-,0.00,,Clear,130,2013-09-19 01:10:00
9:30 PM,66.2,55.4,68,30.07,10.0,SE,5.8,-,0.00,,Partly Cloudy,140,2013-09-19 01:30:00
9:50 PM,64.4,55.4,73,30.07,10.0,SSE,5.8,-,0.00,,Mostly Cloudy,160,2013-09-19 01:50:00
10:10 PM,66.2,57.2,73,30.07,10.0,South,6.9,-,0.00,,Mostly Cloudy,180,2013-09-19 02:10:00
10:30 PM,64.4,57.2,77,30.07,10.0,SSE,6.9,-,0.00,,Clear,150,2013-09-19 02:30:00
10:50 PM,62.6,57.2,82,30.07,10.0,SSE,5.8,-,0.00,,Clear,150,2013-09-19 02:50:00
11:10 PM,62.6,57.2,82,30.07,10.0,SE,5.8,-,0.00,,Clear,140,2013-09-19 03:10:00
11:30 PM,62.6,59.0,88,30.08,10.0,SSE,6.9,-,0.00,,Clear,150,2013-09-19 03:30:00
11:50 PM,62.6,60.8,94,30.07,10.0,SSE,6.9,-,0.00,,Clear,150,2013-09-19 03:50:00